createdAt,value
2023-04-02T00:01:22.831Z,19.30
2023-04-02T00:03:54.242Z,19.30
2023-04-02T00:06:44.501Z,19.30
2023-04-02T00:09:13.996Z,19.30
2023-04-02T00:11:55.815Z,19.30
2023-04-02T00:14:33.722Z,19.30
2023-04-02T00:17:03.025Z,19.30
2023-04-02T00:19:38.332Z,19.30
2023-04-02T00:22:09.359Z,19.30
2023-04-02T00:24:39.178Z,19.30
2023-04-02T00:27:11.856Z,19.30
2023-04-02T00:29:47.357Z,19.30
2023-04-02T00:32:24.322Z,19.40
2023-04-02T00:34:54.400Z,19.40
2023-04-02T00:37:25.063Z,19.30
2023-04-02T00:40:10.931Z,19.30
2023-04-02T00:42:40.111Z,19.30
2023-04-02T00:45:18.939Z,19.30
2023-04-02T00:47:48.388Z,19.30
2023-04-02T00:50:17.074Z,19.30
2023-04-02T00:52:48.100Z,19.30
2023-04-02T00:55:41.607Z,19.30
2023-04-02T00:58:29.994Z,19.30
2023-04-02T01:00:58.466Z,19.20
2023-04-02T01:03:36.332Z,19.20
2023-04-02T01:06:14.447Z,19.30
2023-04-02T01:08:41.801Z,19.30
2023-04-02T01:11:46.505Z,19.30
2023-04-02T01:14:44.113Z,19.40
2023-04-02T01:17:30.397Z,19.50
2023-04-02T01:20:07.507Z,19.50
2023-04-02T01:23:00.725Z,19.50
2023-04-02T01:25:47.161Z,19.60
2023-04-02T01:28:21.008Z,19.60
2023-04-02T01:30:52.702Z,19.60
2023-04-02T01:33:22.087Z,19.70
2023-04-02T01:35:56.951Z,19.60
2023-04-02T01:38:32.848Z,19.70
2023-04-02T01:41:49.220Z,19.60
2023-04-02T01:44:27.939Z,19.70
2023-04-02T01:46:56.580Z,19.70
2023-04-02T01:49:24.318Z,19.70
2023-04-02T01:52:02.706Z,19.80
2023-04-02T01:54:29.903Z,19.70
2023-04-02T01:57:01.859Z,19.70
2023-04-02T01:59:28.960Z,19.70
2023-04-02T02:02:07.590Z,19.80
2023-04-02T02:04:35.023Z,19.80
2023-04-02T02:07:05.210Z,19.70
2023-04-02T02:09:35.987Z,19.80
2023-04-02T02:12:03.917Z,19.70
2023-04-02T02:14:33.729Z,19.70
2023-04-02T02:17:02.622Z,19.80
2023-04-02T02:19:39.239Z,19.70
2023-04-02T02:22:32.516Z,19.80
2023-04-02T02:25:10.721Z,19.80
2023-04-02T02:27:57.273Z,19.70
2023-04-02T02:30:36.540Z,19.80
2023-04-02T02:33:29.360Z,19.80
2023-04-02T02:36:11.789Z,19.80
2023-04-02T02:38:45.005Z,19.70
2023-04-02T02:41:50.212Z,19.90
2023-04-02T02:44:32.610Z,19.80
2023-04-02T02:47:03.487Z,19.90
2023-04-02T02:49:38.374Z,19.70
2023-04-02T02:52:35.000Z,19.80
2023-04-02T02:55:07.364Z,19.60
2023-04-02T02:57:38.707Z,19.90
2023-04-02T03:00:08.193Z,19.80
2023-04-02T03:02:37.605Z,19.80
2023-04-02T03:05:05.533Z,19.80
2023-04-02T03:07:32.484Z,19.80
2023-04-02T03:10:22.506Z,19.70
2023-04-02T03:13:03.234Z,19.80
2023-04-02T03:15:40.514Z,19.70
2023-04-02T03:18:33.513Z,19.70
2023-04-02T03:21:30.940Z,19.70
2023-04-02T03:24:11.505Z,19.70
2023-04-02T03:26:52.380Z,19.70
2023-04-02T03:29:32.064Z,19.70
2023-04-02T03:32:15.492Z,19.70
2023-04-02T03:35:12.030Z,19.70
2023-04-02T03:37:50.875Z,19.50
2023-04-02T03:40:30.660Z,19.60
2023-04-02T03:43:15.208Z,19.50
2023-04-02T03:45:55.348Z,19.50
2023-04-02T03:48:30.271Z,19.50
2023-04-02T03:51:20.457Z,19.40
2023-04-02T03:53:49.905Z,19.30
2023-04-02T03:56:31.817Z,19.30
2023-04-02T03:59:29.910Z,19.40
2023-04-02T04:02:26.806Z,19.40
2023-04-02T04:04:55.443Z,19.60
2023-04-02T04:07:39.930Z,19.50
2023-04-02T04:10:08.993Z,19.60
2023-04-02T04:12:48.515Z,19.60
2023-04-02T04:15:52.770Z,19.70
2023-04-02T04:18:44.890Z,19.70
2023-04-02T04:21:31.271Z,19.40
2023-04-02T04:24:07.995Z,19.50
2023-04-02T04:26:42.774Z,19.60
2023-04-02T04:29:50.326Z,19.50
2023-04-02T04:32:39.054Z,19.50
2023-04-02T04:35:31.127Z,19.40
2023-04-02T04:38:06.410Z,19.40
2023-04-02T04:40:36.833Z,19.40
2023-04-02T04:43:16.041Z,19.30
2023-04-02T04:45:54.396Z,19.30
2023-04-02T04:48:41.600Z,19.30
2023-04-02T04:51:21.301Z,19.40
2023-04-02T04:53:50.774Z,19.40
2023-04-02T04:56:22.079Z,19.40
2023-04-02T04:58:56.893Z,19.30
2023-04-02T05:01:37.489Z,19.40
2023-04-02T05:04:38.532Z,19.40
2023-04-02T05:07:13.859Z,19.40
2023-04-02T05:09:45.948Z,19.30
2023-04-02T05:12:40.380Z,19.50
2023-04-02T05:15:25.725Z,19.50
2023-04-02T05:18:16.607Z,19.50
2023-04-02T05:21:26.417Z,19.40
2023-04-02T05:24:22.084Z,19.30
2023-04-02T05:26:51.840Z,19.40
2023-04-02T05:29:31.711Z,19.50
2023-04-02T05:32:01.589Z,19.50
2023-04-02T05:34:37.521Z,19.50
2023-04-02T05:37:18.768Z,19.50
2023-04-02T05:39:48.341Z,19.60
2023-04-02T05:42:25.623Z,19.50
2023-04-02T05:45:00.016Z,19.50
2023-04-02T05:47:31.256Z,19.50
2023-04-02T05:50:04.652Z,19.60
2023-04-02T05:52:37.155Z,19.70
2023-04-02T05:55:16.704Z,19.70
2023-04-02T05:58:21.374Z,19.80
2023-04-02T06:01:04.586Z,19.80
2023-04-02T06:03:34.462Z,19.80
2023-04-02T06:06:15.959Z,19.80
2023-04-02T06:09:08.678Z,19.80
2023-04-02T06:11:49.515Z,19.80
2023-04-02T06:14:17.707Z,19.90
2023-04-02T06:16:46.252Z,19.80
2023-04-02T06:19:32.811Z,19.70
2023-04-02T06:22:09.626Z,19.70
2023-04-02T06:24:38.674Z,19.80
2023-04-02T06:27:10.189Z,19.70
2023-04-02T06:29:42.238Z,19.50
2023-04-02T06:32:11.535Z,19.60
2023-04-02T06:34:44.985Z,19.60
2023-04-02T06:37:30.110Z,19.60
2023-04-02T06:40:02.466Z,19.60
2023-04-02T06:42:40.125Z,19.60
2023-04-02T06:45:21.152Z,19.60
2023-04-02T06:47:53.559Z,19.60
2023-04-02T06:50:28.271Z,19.50
2023-04-02T06:53:04.815Z,19.60
2023-04-02T06:55:52.763Z,19.70
2023-04-02T06:58:20.279Z,19.70
2023-04-02T07:00:50.106Z,19.60
2023-04-02T07:03:29.480Z,19.70
2023-04-02T07:05:57.238Z,19.60
2023-04-02T07:08:24.231Z,19.60
2023-04-02T07:10:54.774Z,19.60
2023-04-02T07:13:37.986Z,19.60
2023-04-02T07:16:05.080Z,19.60
2023-04-02T07:18:34.107Z,19.70
2023-04-02T07:21:00.821Z,19.80
2023-04-02T07:23:27.530Z,19.70
2023-04-02T07:25:55.664Z,19.70
2023-04-02T07:28:23.037Z,19.70
2023-04-02T07:30:50.827Z,19.70
2023-04-02T07:33:20.512Z,19.80
2023-04-02T07:35:48.242Z,19.60
2023-04-02T07:38:15.072Z,19.60
2023-04-02T07:40:41.910Z,19.50
2023-04-02T07:43:12.003Z,19.50
2023-04-02T07:45:41.085Z,19.50
2023-04-02T07:48:12.513Z,19.50
2023-04-02T07:50:40.507Z,19.50
2023-04-02T07:53:08.832Z,19.40
2023-04-02T07:55:35.804Z,19.50
2023-04-02T07:58:06.053Z,19.50
2023-04-02T08:00:33.687Z,19.30
2023-04-02T08:03:05.200Z,19.60
2023-04-02T08:05:35.997Z,19.80
2023-04-02T08:08:03.834Z,19.60
2023-04-02T08:10:33.589Z,19.60
2023-04-02T08:13:03.265Z,19.70
2023-04-02T08:15:34.773Z,19.70
2023-04-02T08:18:01.941Z,19.80
2023-04-02T08:20:28.927Z,19.70
2023-04-02T08:22:56.415Z,19.70
2023-04-02T08:25:23.189Z,19.70
2023-04-02T08:27:50.633Z,19.70
2023-04-02T08:30:21.120Z,19.70
2023-04-02T08:32:48.310Z,19.70
2023-04-02T08:35:16.810Z,19.70
2023-04-02T08:37:43.808Z,19.60
2023-04-02T08:40:27.552Z,19.50
2023-04-02T08:43:23.783Z,19.50
2023-04-02T08:46:17.595Z,19.70
2023-04-02T08:48:53.207Z,19.60
2023-04-02T08:51:26.642Z,19.70
2023-04-02T08:54:19.423Z,19.60
2023-04-02T08:57:13.480Z,19.70
2023-04-02T08:59:43.525Z,19.70
2023-04-02T09:02:46.078Z,19.70
2023-04-02T09:05:21.038Z,19.70
2023-04-02T09:07:48.794Z,19.60
2023-04-02T09:10:19.706Z,19.60
2023-04-02T09:12:51.895Z,19.60
2023-04-02T09:15:34.160Z,19.70
2023-04-02T09:18:12.879Z,19.60
2023-04-02T09:20:40.395Z,19.50
2023-04-02T09:23:21.082Z,19.40
2023-04-02T09:26:03.531Z,19.30
2023-04-02T09:28:31.595Z,19.30
2023-04-02T09:31:22.021Z,19.40
2023-04-02T09:33:54.620Z,19.40
2023-04-02T09:36:33.811Z,19.30
2023-04-02T09:39:20.038Z,19.50
2023-04-02T09:41:55.839Z,19.70
2023-04-02T09:44:32.421Z,19.50
2023-04-02T09:47:05.218Z,19.40
2023-04-02T09:49:37.198Z,19.50
2023-04-02T09:52:23.364Z,19.50
2023-04-02T09:55:11.962Z,19.50
2023-04-02T09:57:38.803Z,19.50
2023-04-02T10:00:32.030Z,19.60
2023-04-02T10:03:19.286Z,19.60
2023-04-02T10:05:47.254Z,19.40
2023-04-02T10:08:26.215Z,19.50
2023-04-02T10:10:57.957Z,19.50
2023-04-02T10:13:29.921Z,19.50
2023-04-02T10:16:26.398Z,19.40
2023-04-02T10:19:15.108Z,19.40
2023-04-02T10:21:43.556Z,19.40
2023-04-02T10:24:17.894Z,19.50
2023-04-02T10:27:25.683Z,19.30
2023-04-02T10:30:16.128Z,19.30
2023-04-02T10:33:00.865Z,19.30
2023-04-02T10:35:36.879Z,19.10
2023-04-02T10:38:28.598Z,19.30
2023-04-02T10:41:13.927Z,19.30
2023-04-02T10:44:06.461Z,19.30
2023-04-02T10:47:22.427Z,19.30
2023-04-02T10:49:57.985Z,19.20
2023-04-02T10:52:31.758Z,19.20
2023-04-02T10:55:04.009Z,19.50
2023-04-02T10:57:34.982Z,19.30
2023-04-02T11:00:10.972Z,19.30
2023-04-02T11:03:02.670Z,19.20
2023-04-02T11:05:40.302Z,19.10
2023-04-02T11:08:16.689Z,19.30
2023-04-02T11:10:48.767Z,19.20
2023-04-02T11:13:28.089Z,19.20
2023-04-02T11:15:54.959Z,19.20
2023-04-02T11:18:37.354Z,19.10
2023-04-02T11:21:30.104Z,19.00
2023-04-02T11:24:00.355Z,19.10
2023-04-02T11:26:41.478Z,19.20
2023-04-02T11:29:24.769Z,19.30
2023-04-02T11:32:27.120Z,19.30
2023-04-02T11:35:05.793Z,19.40
2023-04-02T11:37:36.625Z,19.10
2023-04-02T11:40:15.826Z,19.20
2023-04-02T11:42:47.603Z,19.30
2023-04-02T11:45:37.625Z,19.30
2023-04-02T11:48:13.234Z,19.20
2023-04-02T11:50:46.520Z,19.20
2023-04-02T11:53:14.728Z,19.30
2023-04-02T11:55:46.934Z,19.30
2023-04-02T11:58:25.382Z,19.30
2023-04-02T12:01:14.876Z,19.20
2023-04-02T12:04:06.235Z,19.20
2023-04-02T12:06:52.040Z,19.20
2023-04-02T12:09:23.780Z,19.20
2023-04-02T12:12:15.017Z,19.20
2023-04-02T12:14:51.036Z,19.30
2023-04-02T12:17:30.478Z,19.20
2023-04-02T12:20:10.249Z,19.20
2023-04-02T12:22:48.749Z,19.10
2023-04-02T12:25:23.726Z,19.10
2023-04-02T12:28:09.280Z,19.20
2023-04-02T12:30:37.949Z,19.20
2023-04-02T12:33:22.864Z,19.10
2023-04-02T12:35:57.390Z,19.10
2023-04-02T12:38:44.409Z,19.50
2023-04-02T12:41:33.243Z,19.10
2023-04-02T12:44:18.563Z,19.10
2023-04-02T12:46:50.047Z,19.30
2023-04-02T12:49:52.751Z,19.10
2023-04-02T12:52:22.482Z,19.20
2023-04-02T12:54:58.312Z,19.20
2023-04-02T12:57:33.626Z,19.20
2023-04-02T13:00:06.159Z,19.10
2023-04-02T13:02:49.188Z,19.20
2023-04-02T13:06:08.262Z,19.10
2023-04-02T13:08:46.810Z,19.10
2023-04-02T13:11:13.515Z,19.10
2023-04-02T13:13:42.586Z,19.10
2023-04-02T13:16:15.170Z,19.20
2023-04-02T13:18:48.154Z,19.10
2023-04-02T13:21:17.670Z,19.00
2023-04-02T13:23:47.584Z,19.00
2023-04-02T13:26:24.222Z,19.00
2023-04-02T13:29:00.173Z,19.00
2023-04-02T13:31:28.174Z,19.30
2023-04-02T13:33:54.941Z,19.20
2023-04-02T13:36:22.799Z,19.10
2023-04-02T13:38:49.509Z,19.10
2023-04-02T13:41:28.506Z,19.00
2023-04-02T13:43:58.357Z,19.00
2023-04-02T13:46:28.047Z,19.10
2023-04-02T13:48:55.929Z,19.10
2023-04-02T13:51:33.086Z,19.00
2023-04-02T13:54:02.722Z,19.10
2023-04-02T13:56:29.469Z,19.00
2023-04-02T13:58:56.156Z,19.00
2023-04-02T14:01:25.225Z,19.00
2023-04-02T14:04:00.313Z,19.00
2023-04-02T14:06:42.577Z,19.10
2023-04-02T14:09:23.436Z,18.90
2023-04-02T14:12:14.984Z,19.00
2023-04-02T14:15:01.428Z,19.00
2023-04-02T14:17:37.653Z,19.00
2023-04-02T14:20:22.538Z,19.00
2023-04-02T14:23:10.951Z,19.00
2023-04-02T14:26:15.027Z,19.00
2023-04-02T14:29:05.409Z,19.00
2023-04-02T14:31:59.998Z,19.10
2023-04-02T14:34:42.994Z,19.00
2023-04-02T14:37:30.866Z,19.00
2023-04-02T14:40:13.633Z,19.00
2023-04-02T14:43:05.264Z,19.00
2023-04-02T14:45:37.979Z,19.00
2023-04-02T14:48:27.034Z,19.00
2023-04-02T14:51:00.891Z,19.00
2023-04-02T14:53:37.333Z,19.00
2023-04-02T14:56:08.107Z,19.00
2023-04-02T14:58:40.813Z,18.80
2023-04-02T15:01:13.876Z,18.90
2023-04-02T15:03:56.665Z,18.90
2023-04-02T15:06:27.836Z,18.90
2023-04-02T15:09:09.518Z,19.00
2023-04-02T15:11:41.850Z,19.00
2023-04-02T15:14:28.989Z,18.90
2023-04-02T15:16:55.889Z,19.00
2023-04-02T15:19:22.635Z,18.90
2023-04-02T15:22:19.681Z,18.90
2023-04-02T15:25:03.103Z,18.90
2023-04-02T15:28:02.140Z,19.00
2023-04-02T15:30:41.399Z,19.00
2023-04-02T15:33:23.235Z,18.90
2023-04-02T15:35:58.647Z,18.90
2023-04-02T15:39:06.084Z,18.90
2023-04-02T15:41:46.027Z,18.90
2023-04-02T15:44:18.746Z,18.90
2023-04-02T15:47:08.907Z,18.90
2023-04-02T15:49:35.890Z,18.90
2023-04-02T15:52:18.310Z,18.80
2023-04-02T15:54:54.725Z,18.80
2023-04-02T15:57:51.123Z,18.90
2023-04-02T16:00:27.894Z,18.90
2023-04-02T16:03:02.622Z,18.90
2023-04-02T16:05:56.639Z,18.90
2023-04-02T16:08:52.063Z,18.80
2023-04-02T16:11:19.142Z,18.90
2023-04-02T16:13:57.636Z,18.90
2023-04-02T16:16:32.830Z,18.80
2023-04-02T16:19:16.076Z,18.90
2023-04-02T16:21:52.865Z,18.90
2023-04-02T16:24:19.987Z,18.80
2023-04-02T16:27:07.622Z,18.90
2023-04-02T16:30:01.708Z,18.70
2023-04-02T16:32:35.822Z,18.70
2023-04-02T16:35:42.306Z,18.80
2023-04-02T16:38:24.514Z,18.80
2023-04-02T16:41:06.913Z,18.90
2023-04-02T16:44:07.131Z,18.90
2023-04-02T16:46:40.783Z,18.90
2023-04-02T16:49:23.445Z,19.00
2023-04-02T16:52:19.646Z,19.00
2023-04-02T16:55:05.609Z,19.00
2023-04-02T16:57:50.497Z,19.20
2023-04-02T17:00:25.230Z,19.00
2023-04-02T17:03:16.442Z,19.10
2023-04-02T17:06:04.502Z,19.00
2023-04-02T17:08:42.821Z,19.00
2023-04-02T17:11:21.405Z,19.00
2023-04-02T17:14:05.783Z,19.00
2023-04-02T17:16:46.276Z,19.10
2023-04-02T17:19:15.501Z,19.10
2023-04-02T17:21:48.973Z,19.10
2023-04-02T17:24:25.240Z,19.30
2023-04-02T17:27:00.395Z,19.10
2023-04-02T17:29:36.696Z,19.10
2023-04-02T17:32:12.070Z,19.10
2023-04-02T17:34:38.808Z,19.10
2023-04-02T17:37:27.667Z,19.20
2023-04-02T17:40:23.312Z,19.20
2023-04-02T17:43:09.749Z,19.10
2023-04-02T17:45:57.369Z,19.20
2023-04-02T17:48:40.442Z,19.10
2023-04-02T17:51:12.828Z,19.10
2023-04-02T17:54:10.928Z,19.10
2023-04-02T17:56:50.842Z,19.10
2023-04-02T17:59:44.442Z,18.90
2023-04-02T18:02:26.072Z,18.90
2023-04-02T18:05:12.440Z,19.00
2023-04-02T18:08:26.578Z,19.00
2023-04-02T18:11:17.892Z,18.90
2023-04-02T18:14:13.220Z,18.90
2023-04-02T18:16:48.444Z,18.90
2023-04-02T18:19:18.284Z,19.00
2023-04-02T18:21:57.332Z,19.10
2023-04-02T18:24:50.502Z,19.00
2023-04-02T18:27:42.468Z,19.10
2023-04-02T18:30:12.237Z,19.00
2023-04-02T18:32:47.308Z,19.00
2023-04-02T18:35:33.312Z,19.00
2023-04-02T18:38:21.402Z,18.90
2023-04-02T18:41:15.920Z,18.90
2023-04-02T18:44:01.369Z,18.90
2023-04-02T18:46:31.173Z,19.00
2023-04-02T18:49:24.365Z,19.10
2023-04-02T18:51:56.223Z,19.10
2023-04-02T18:54:34.066Z,19.00
2023-04-02T18:57:22.002Z,19.00
2023-04-02T19:00:01.913Z,19.00
2023-04-02T19:02:56.814Z,19.00
2023-04-02T19:05:49.737Z,19.00
2023-04-02T19:08:38.224Z,19.00
2023-04-02T19:11:17.281Z,19.00
2023-04-02T19:13:45.099Z,18.90
2023-04-02T19:16:17.706Z,19.00
2023-04-02T19:19:03.747Z,18.90
2023-04-02T19:22:01.636Z,18.80
2023-04-02T19:24:46.564Z,19.00
2023-04-02T19:27:42.478Z,18.90
2023-04-02T19:30:27.840Z,18.90
2023-04-02T19:33:00.473Z,18.90
2023-04-02T19:36:07.033Z,18.80
2023-04-02T19:38:45.999Z,18.90
2023-04-02T19:41:48.276Z,18.90
2023-04-02T19:44:18.759Z,18.80
2023-04-02T19:46:46.474Z,18.80
2023-04-02T19:49:32.687Z,18.80
2023-04-02T19:52:00.376Z,18.80
2023-04-02T19:54:27.237Z,18.90
2023-04-02T19:56:56.330Z,18.80
2023-04-02T19:59:23.256Z,18.80
2023-04-02T20:01:52.806Z,18.80
2023-04-02T20:04:19.545Z,18.80
2023-04-02T20:06:46.285Z,18.80
2023-04-02T20:09:13.116Z,18.80
2023-04-02T20:11:39.763Z,18.80
2023-04-02T20:14:09.313Z,18.80
2023-04-02T20:16:37.128Z,18.80
2023-04-02T20:19:03.982Z,18.80
2023-04-02T20:21:38.032Z,18.70
2023-04-02T20:24:08.617Z,18.80
2023-04-02T20:26:36.260Z,18.70
2023-04-02T20:29:05.881Z,18.70
2023-04-02T20:31:33.898Z,18.70
2023-04-02T20:34:02.540Z,18.70
2023-04-02T20:36:35.158Z,18.60
2023-04-02T20:39:02.175Z,18.60
2023-04-02T20:41:28.957Z,18.70
2023-04-02T20:43:56.608Z,18.70
2023-04-02T20:46:23.461Z,18.60
2023-04-02T20:48:50.461Z,18.70
2023-04-02T20:51:17.381Z,18.70
2023-04-02T20:53:44.211Z,18.90
2023-04-02T20:56:16.308Z,18.70
2023-04-02T20:58:43.411Z,18.60
2023-04-02T21:01:16.390Z,18.60
2023-04-02T21:03:46.346Z,18.60
2023-04-02T21:06:19.373Z,18.60
2023-04-02T21:08:46.486Z,18.70
2023-04-02T21:11:17.056Z,18.70
2023-04-02T21:13:46.883Z,18.60
2023-04-02T21:16:19.129Z,18.70
2023-04-02T21:18:47.545Z,18.50
2023-04-02T21:21:18.340Z,18.60
2023-04-02T21:23:45.912Z,18.60
2023-04-02T21:26:18.725Z,18.60
2023-04-02T21:28:51.566Z,18.50
2023-04-02T21:31:26.923Z,18.60
2023-04-02T21:33:55.985Z,18.60
2023-04-02T21:36:27.729Z,18.60
2023-04-02T21:39:03.391Z,18.60
2023-04-02T21:41:33.036Z,18.60
2023-04-02T21:44:02.471Z,18.50
2023-04-02T21:46:31.434Z,18.40
2023-04-02T21:48:59.441Z,18.50
2023-04-02T21:51:32.921Z,18.50
2023-04-02T21:54:00.201Z,18.40
2023-04-02T21:56:29.965Z,18.50
2023-04-02T21:58:58.379Z,18.50
2023-04-02T22:01:28.152Z,18.50
2023-04-02T22:03:56.821Z,18.50
2023-04-02T22:06:25.061Z,18.50
2023-04-02T22:08:54.756Z,18.50
2023-04-02T22:11:24.600Z,18.50
2023-04-02T22:13:51.322Z,18.50
2023-04-02T22:16:21.888Z,18.40
2023-04-02T22:18:50.318Z,18.50
2023-04-02T22:21:17.645Z,18.50
2023-04-02T22:23:47.992Z,18.40
2023-04-02T22:26:17.333Z,18.40
2023-04-02T22:28:44.341Z,18.40
2023-04-02T22:31:21.088Z,18.30
2023-04-02T22:33:48.487Z,18.40
2023-04-02T22:36:16.410Z,18.40
2023-04-02T22:38:43.152Z,18.50
2023-04-02T22:41:21.720Z,18.30
2023-04-02T22:43:48.672Z,18.40
2023-04-02T22:46:17.482Z,18.30
2023-04-02T22:48:45.387Z,18.40
2023-04-02T22:51:14.799Z,18.40
2023-04-02T22:53:42.890Z,18.40
2023-04-02T22:56:13.559Z,18.40
2023-04-02T22:58:40.514Z,18.30
2023-04-02T23:01:17.050Z,18.30
2023-04-02T23:03:43.917Z,18.40
2023-04-02T23:06:14.357Z,18.50
2023-04-02T23:08:41.475Z,18.30
2023-04-02T23:11:17.476Z,18.40
2023-04-02T23:13:51.268Z,18.30
2023-04-02T23:16:19.210Z,18.40
2023-04-02T23:18:49.972Z,18.30
2023-04-02T23:21:17.802Z,18.30
2023-04-02T23:23:48.161Z,18.40
2023-04-02T23:26:22.920Z,18.30
2023-04-02T23:28:50.720Z,18.30
2023-04-02T23:31:22.371Z,18.30
2023-04-02T23:33:50.584Z,18.20
2023-04-02T23:36:25.732Z,18.30
2023-04-02T23:38:55.328Z,18.30
2023-04-02T23:41:27.276Z,18.30
2023-04-02T23:44:00.106Z,18.20
2023-04-02T23:46:27.881Z,18.30
2023-04-02T23:48:57.906Z,18.30
2023-04-02T23:51:28.399Z,18.30
2023-04-02T23:53:58.413Z,18.20
2023-04-02T23:56:31.712Z,18.30
2023-04-02T23:58:58.490Z,18.20
